sensor_id;sensor_type;location;lat;lon;timestamp;pressure;altitude;pressure_sealevel;temperature;humidity
56831;BME280;42713;42.676;23.352;2023-04-20T00:01:57;94416.78;;;9.92;65.08
56831;BME280;42713;42.676;23.352;2023-04-20T00:04:27;94422.00;;;9.92;64.50
56831;BME280;42713;42.676;23.352;2023-04-20T00:06:54;94409.97;;;9.91;64.20
56831;BME280;42713;42.676;23.352;2023-04-20T00:09:21;94417.09;;;9.95;63.46
56831;BME280;42713;42.676;23.352;2023-04-20T00:11:47;94404.22;;;9.89;63.59
56831;BME280;42713;42.676;23.352;2023-04-20T00:14:12;94406.84;;;9.89;64.23
56831;BME280;42713;42.676;23.352;2023-04-20T00:16:38;94406.84;;;9.89;64.40
56831;BME280;42713;42.676;23.352;2023-04-20T00:19:03;94402.13;;;9.91;64.05
56831;BME280;42713;42.676;23.352;2023-04-20T00:21:29;94402.94;;;9.91;64.32
56831;BME280;42713;42.676;23.352;2023-04-20T00:23:54;94395.09;;;9.91;64.33
56831;BME280;42713;42.676;23.352;2023-04-20T00:26:20;94398.97;;;9.89;64.68
56831;BME280;42713;42.676;23.352;2023-04-20T00:28:45;94402.34;;;9.84;65.27
56831;BME280;42713;42.676;23.352;2023-04-20T00:31:11;94398.66;;;9.85;64.30
56831;BME280;42713;42.676;23.352;2023-04-20T00:33:36;94398.50;;;9.70;65.14
56831;BME280;42713;42.676;23.352;2023-04-20T00:36:02;94392.97;;;9.66;65.15
56831;BME280;42713;42.676;23.352;2023-04-20T00:38:27;94394.19;;;9.58;65.86
56831;BME280;42713;42.676;23.352;2023-04-20T00:40:56;94402.44;;;9.50;66.22
56831;BME280;42713;42.676;23.352;2023-04-20T00:43:21;94400.41;;;9.52;66.98
56831;BME280;42713;42.676;23.352;2023-04-20T00:45:47;94394.66;;;9.55;66.16
56831;BME280;42713;42.676;23.352;2023-04-20T00:48:12;94394.13;;;9.53;66.13
56831;BME280;42713;42.676;23.352;2023-04-20T00:50:39;94395.34;;;9.45;66.58
56831;BME280;42713;42.676;23.352;2023-04-20T00:53:06;94387.78;;;9.49;66.63
56831;BME280;42713;42.676;23.352;2023-04-20T00:55:31;94394.47;;;9.40;66.23
56831;BME280;42713;42.676;23.352;2023-04-20T00:57:57;94391.09;;;9.39;67.23
56831;BME280;42713;42.676;23.352;2023-04-20T01:00:24;94403.22;;;9.28;67.60
56831;BME280;42713;42.676;23.352;2023-04-20T01:02:49;94393.44;;;9.18;67.04
56831;BME280;42713;42.676;23.352;2023-04-20T01:05:15;94392.03;;;9.11;67.40
56831;BME280;42713;42.676;23.352;2023-04-20T01:07:41;94391.78;;;9.12;67.93
56831;BME280;42713;42.676;23.352;2023-04-20T01:10:07;94395.34;;;9.06;67.98
56831;BME280;42713;42.676;23.352;2023-04-20T01:12:33;94382.97;;;8.96;68.73
56831;BME280;42713;42.676;23.352;2023-04-20T01:14:58;94386.41;;;9.02;69.42
56831;BME280;42713;42.676;23.352;2023-04-20T01:17:25;94391.16;;;9.05;69.25
56831;BME280;42713;42.676;23.352;2023-04-20T01:19:50;94397.97;;;9.06;69.34
56831;BME280;42713;42.676;23.352;2023-04-20T01:22:19;94396.22;;;8.95;68.87
56831;BME280;42713;42.676;23.352;2023-04-20T01:24:45;94386.81;;;8.94;69.62
56831;BME280;42713;42.676;23.352;2023-04-20T01:27:12;94392.59;;;8.96;69.25
56831;BME280;42713;42.676;23.352;2023-04-20T01:29:38;94396.31;;;9.00;69.80
56831;BME280;42713;42.676;23.352;2023-04-20T01:32:04;94394.25;;;9.02;69.44
56831;BME280;42713;42.676;23.352;2023-04-20T01:34:29;94394.50;;;9.00;69.05
56831;BME280;42713;42.676;23.352;2023-04-20T01:36:54;94385.31;;;8.98;70.02
56831;BME280;42713;42.676;23.352;2023-04-20T01:39:20;94388.97;;;8.97;68.99
56831;BME280;42713;42.676;23.352;2023-04-20T01:41:45;94390.84;;;9.01;69.86
56831;BME280;42713;42.676;23.352;2023-04-20T01:44:11;94386.50;;;9.07;69.03
56831;BME280;42713;42.676;23.352;2023-04-20T01:46:37;94380.47;;;9.07;68.80
56831;BME280;42713;42.676;23.352;2023-04-20T01:49:06;94371.66;;;9.13;68.66
56831;BME280;42713;42.676;23.352;2023-04-20T01:51:33;94372.53;;;9.18;68.30
56831;BME280;42713;42.676;23.352;2023-04-20T01:53:59;94377.59;;;9.25;67.74
56831;BME280;42713;42.676;23.352;2023-04-20T01:56:24;94374.78;;;9.32;67.70
56831;BME280;42713;42.676;23.352;2023-04-20T01:58:50;94379.59;;;9.40;67.50
56831;BME280;42713;42.676;23.352;2023-04-20T02:01:15;94368.66;;;9.43;67.33
56831;BME280;42713;42.676;23.352;2023-04-20T02:03:41;94365.56;;;9.46;66.74
56831;BME280;42713;42.676;23.352;2023-04-20T02:06:07;94367.56;;;9.39;67.00
56831;BME280;42713;42.676;23.352;2023-04-20T02:08:32;94367.88;;;9.43;67.41
56831;BME280;42713;42.676;23.352;2023-04-20T02:10:58;94373.31;;;9.41;67.35
56831;BME280;42713;42.676;23.352;2023-04-20T02:13:23;94370.72;;;9.41;67.39
56831;BME280;42713;42.676;23.352;2023-04-20T02:15:49;94371.03;;;9.45;67.26
56831;BME280;42713;42.676;23.352;2023-04-20T02:18:14;94369.94;;;9.41;67.78
56831;BME280;42713;42.676;23.352;2023-04-20T02:20:43;94370.97;;;9.40;67.78
56831;BME280;42713;42.676;23.352;2023-04-20T02:23:09;94370.66;;;9.36;67.93
56831;BME280;42713;42.676;23.352;2023-04-20T02:25:35;94378.53;;;9.41;68.82
56831;BME280;42713;42.676;23.352;2023-04-20T02:28:00;94367.00;;;9.37;68.33
56831;BME280;42713;42.676;23.352;2023-04-20T02:30:26;94371.50;;;9.42;68.00
56831;BME280;42713;42.676;23.352;2023-04-20T02:32:51;94378.75;;;9.34;67.74
56831;BME280;42713;42.676;23.352;2023-04-20T02:35:17;94376.63;;;9.31;68.03
56831;BME280;42713;42.676;23.352;2023-04-20T02:37:43;94373.81;;;9.16;67.94
56831;BME280;42713;42.676;23.352;2023-04-20T02:40:08;94372.25;;;8.98;68.84
56831;BME280;42713;42.676;23.352;2023-04-20T02:42:34;94380.66;;;9.00;68.83
56831;BME280;42713;42.676;23.352;2023-04-20T02:45:00;94380.00;;;8.93;68.30
56831;BME280;42713;42.676;23.352;2023-04-20T02:47:26;94381.44;;;8.83;69.40
56831;BME280;42713;42.676;23.352;2023-04-20T02:49:51;94371.88;;;8.89;68.92
56831;BME280;42713;42.676;23.352;2023-04-20T02:52:16;94375.91;;;8.80;69.13
56831;BME280;42713;42.676;23.352;2023-04-20T02:54:42;94371.72;;;8.79;69.36
56831;BME280;42713;42.676;23.352;2023-04-20T02:57:07;94377.09;;;8.89;69.41
56831;BME280;42713;42.676;23.352;2023-04-20T02:59:35;94378.84;;;8.83;69.18
56831;BME280;42713;42.676;23.352;2023-04-20T03:02:00;94365.56;;;8.85;68.96
56831;BME280;42713;42.676;23.352;2023-04-20T03:04:25;94373.53;;;8.95;69.11
56831;BME280;42713;42.676;23.352;2023-04-20T03:06:51;94371.16;;;8.94;68.83
56831;BME280;42713;42.676;23.352;2023-04-20T03:09:17;94371.78;;;9.01;68.62
56831;BME280;42713;42.676;23.352;2023-04-20T03:11:44;94374.19;;;9.08;68.39
56831;BME280;42713;42.676;23.352;2023-04-20T03:14:09;94374.03;;;9.14;68.07
56831;BME280;42713;42.676;23.352;2023-04-20T03:16:35;94372.75;;;9.17;67.61
56831;BME280;42713;42.676;23.352;2023-04-20T03:19:00;94376.09;;;9.12;68.17
56831;BME280;42713;42.676;23.352;2023-04-20T03:21:27;94370.88;;;9.12;68.07
56831;BME280;42713;42.676;23.352;2023-04-20T03:23:52;94369.06;;;9.13;67.86
56831;BME280;42713;42.676;23.352;2023-04-20T03:26:18;94370.41;;;9.15;67.68
56831;BME280;42713;42.676;23.352;2023-04-20T03:28:44;94368.75;;;9.09;67.96
56831;BME280;42713;42.676;23.352;2023-04-20T03:31:10;94374.75;;;9.10;67.69
56831;BME280;42713;42.676;23.352;2023-04-20T03:33:35;94375.72;;;9.03;67.97
56831;BME280;42713;42.676;23.352;2023-04-20T03:36:01;94375.47;;;9.05;68.23
56831;BME280;42713;42.676;23.352;2023-04-20T03:38:27;94372.56;;;9.01;67.93
56831;BME280;42713;42.676;23.352;2023-04-20T03:40:52;94375.19;;;9.01;67.54
56831;BME280;42713;42.676;23.352;2023-04-20T03:43:17;94365.50;;;9.02;68.38
56831;BME280;42713;42.676;23.352;2023-04-20T03:45:43;94378.56;;;9.02;67.87
56831;BME280;42713;42.676;23.352;2023-04-20T03:48:08;94380.09;;;8.98;68.01
56831;BME280;42713;42.676;23.352;2023-04-20T03:50:33;94372.31;;;9.03;67.78
56831;BME280;42713;42.676;23.352;2023-04-20T03:52:59;94370.50;;;9.03;67.34
56831;BME280;42713;42.676;23.352;2023-04-20T03:55:24;94385.28;;;9.15;67.48
56831;BME280;42713;42.676;23.352;2023-04-20T03:57:50;94387.56;;;9.11;67.08
56831;BME280;42713;42.676;23.352;2023-04-20T04:00:16;94376.59;;;9.09;66.94
56831;BME280;42713;42.676;23.352;2023-04-20T04:02:41;94377.63;;;9.08;67.18
56831;BME280;42713;42.676;23.352;2023-04-20T04:05:07;94383.94;;;9.12;67.01
56831;BME280;42713;42.676;23.352;2023-04-20T04:07:32;94387.25;;;9.08;67.35
56831;BME280;42713;42.676;23.352;2023-04-20T04:09:58;94377.94;;;9.12;67.12
56831;BME280;42713;42.676;23.352;2023-04-20T04:12:24;94384.56;;;9.19;66.83
56831;BME280;42713;42.676;23.352;2023-04-20T04:14:49;94393.19;;;9.20;67.49
56831;BME280;42713;42.676;23.352;2023-04-20T04:17:14;94384.56;;;9.19;67.24
56831;BME280;42713;42.676;23.352;2023-04-20T04:19:40;94390.31;;;9.22;67.69
56831;BME280;42713;42.676;23.352;2023-04-20T04:22:06;94392.22;;;9.26;67.66
56831;BME280;42713;42.676;23.352;2023-04-20T04:24:32;94387.53;;;9.28;67.31
56831;BME280;42713;42.676;23.352;2023-04-20T04:26:58;94391.44;;;9.26;67.30
56831;BME280;42713;42.676;23.352;2023-04-20T04:29:24;94386.50;;;9.29;67.18
56831;BME280;42713;42.676;23.352;2023-04-20T04:31:52;94390.97;;;9.29;66.43
56831;BME280;42713;42.676;23.352;2023-04-20T04:34:18;94393.75;;;9.22;66.94
56831;BME280;42713;42.676;23.352;2023-04-20T04:36:44;94395.78;;;9.20;67.03
56831;BME280;42713;42.676;23.352;2023-04-20T04:39:10;94396.34;;;9.22;67.45
56831;BME280;42713;42.676;23.352;2023-04-20T04:41:36;94393.13;;;9.15;67.54
56831;BME280;42713;42.676;23.352;2023-04-20T04:44:02;94399.44;;;9.19;67.26
56831;BME280;42713;42.676;23.352;2023-04-20T04:46:30;94404.66;;;9.19;66.73
56831;BME280;42713;42.676;23.352;2023-04-20T04:48:56;94403.09;;;9.18;67.06
56831;BME280;42713;42.676;23.352;2023-04-20T04:51:25;94404.13;;;9.17;67.00
56831;BME280;42713;42.676;23.352;2023-04-20T04:53:50;94400.41;;;9.13;67.39
56831;BME280;42713;42.676;23.352;2023-04-20T04:56:16;94413.13;;;9.26;67.65
56831;BME280;42713;42.676;23.352;2023-04-20T04:58:43;94413.94;;;9.27;67.10
56831;BME280;42713;42.676;23.352;2023-04-20T05:01:10;94413.19;;;9.31;67.06
56831;BME280;42713;42.676;23.352;2023-04-20T05:03:36;94416.28;;;9.28;66.34
56831;BME280;42713;42.676;23.352;2023-04-20T05:06:02;94417.25;;;9.22;67.62
56831;BME280;42713;42.676;23.352;2023-04-20T05:08:27;94415.25;;;9.29;66.93
56831;BME280;42713;42.676;23.352;2023-04-20T05:10:52;94420.63;;;9.40;66.93
56831;BME280;42713;42.676;23.352;2023-04-20T05:13:18;94422.84;;;9.31;66.93
56831;BME280;42713;42.676;23.352;2023-04-20T05:15:43;94427.28;;;9.30;66.90
56831;BME280;42713;42.676;23.352;2023-04-20T05:18:09;94424.69;;;9.30;67.10
56831;BME280;42713;42.676;23.352;2023-04-20T05:20:35;94416.28;;;9.28;67.87
56831;BME280;42713;42.676;23.352;2023-04-20T05:23:03;94431.03;;;9.34;67.48
56831;BME280;42713;42.676;23.352;2023-04-20T05:25:30;94419.03;;;9.39;67.13
56831;BME280;42713;42.676;23.352;2023-04-20T05:27:56;94417.69;;;9.36;65.80
56831;BME280;42713;42.676;23.352;2023-04-20T05:30:22;94414.84;;;9.38;66.73
56831;BME280;42713;42.676;23.352;2023-04-20T05:32:48;94418.56;;;9.42;66.93
56831;BME280;42713;42.676;23.352;2023-04-20T05:35:13;94417.84;;;9.46;66.67
56831;BME280;42713;42.676;23.352;2023-04-20T05:37:40;94424.69;;;9.53;66.92
56831;BME280;42713;42.676;23.352;2023-04-20T05:40:06;94425.25;;;9.55;66.05
56831;BME280;42713;42.676;23.352;2023-04-20T05:42:32;94430.06;;;9.63;65.98
56831;BME280;42713;42.676;23.352;2023-04-20T05:44:57;94431.91;;;9.62;65.57
56831;BME280;42713;42.676;23.352;2023-04-20T05:47:22;94434.69;;;9.56;65.49
56831;BME280;42713;42.676;23.352;2023-04-20T05:49:48;94431.03;;;9.57;66.23
56831;BME280;42713;42.676;23.352;2023-04-20T05:52:14;94422.63;;;9.55;66.45
56831;BME280;42713;42.676;23.352;2023-04-20T05:54:41;94425.81;;;9.57;66.70
56831;BME280;42713;42.676;23.352;2023-04-20T05:57:07;94428.16;;;9.58;66.94
56831;BME280;42713;42.676;23.352;2023-04-20T05:59:33;94439.50;;;9.64;66.50
56831;BME280;42713;42.676;23.352;2023-04-20T06:01:58;94431.03;;;9.57;66.90
56831;BME280;42713;42.676;23.352;2023-04-20T06:04:24;94424.47;;;9.54;66.90
56831;BME280;42713;42.676;23.352;2023-04-20T06:06:49;94423.97;;;9.57;67.65
56831;BME280;42713;42.676;23.352;2023-04-20T06:09:16;94430.22;;;9.56;67.23
56831;BME280;42713;42.676;23.352;2023-04-20T06:11:41;94434.28;;;9.47;66.90
56831;BME280;42713;42.676;23.352;2023-04-20T06:14:07;94435.03;;;9.42;68.66
56831;BME280;42713;42.676;23.352;2023-04-20T06:16:32;94437.50;;;9.32;68.62
56831;BME280;42713;42.676;23.352;2023-04-20T06:18:57;94434.56;;;9.28;69.68
56831;BME280;42713;42.676;23.352;2023-04-20T06:21:23;94433.50;;;9.24;68.95
56831;BME280;42713;42.676;23.352;2023-04-20T06:23:49;94425.66;;;9.24;69.70
56831;BME280;42713;42.676;23.352;2023-04-20T06:26:14;94436.03;;;9.19;69.58
56831;BME280;42713;42.676;23.352;2023-04-20T06:28:40;94435.81;;;9.21;69.59
56831;BME280;42713;42.676;23.352;2023-04-20T06:31:05;94438.78;;;9.29;69.45
56831;BME280;42713;42.676;23.352;2023-04-20T06:33:31;94445.19;;;9.39;69.83
56831;BME280;42713;42.676;23.352;2023-04-20T06:35:57;94431.56;;;9.37;69.19
56831;BME280;42713;42.676;23.352;2023-04-20T06:38:24;94432.66;;;9.41;69.21
56831;BME280;42713;42.676;23.352;2023-04-20T06:40:50;94435.56;;;9.44;68.88
56831;BME280;42713;42.676;23.352;2023-04-20T06:43:15;94445.78;;;9.46;68.85
56831;BME280;42713;42.676;23.352;2023-04-20T06:45:41;94446.84;;;9.45;68.78
56831;BME280;42713;42.676;23.352;2023-04-20T06:48:06;94442.41;;;9.45;68.85
56831;BME280;42713;42.676;23.352;2023-04-20T06:50:32;94455.47;;;9.45;68.34
56831;BME280;42713;42.676;23.352;2023-04-20T06:52:58;94449.69;;;9.43;69.12
56831;BME280;42713;42.676;23.352;2023-04-20T06:55:40;94451.81;;;9.46;69.02
56831;BME280;42713;42.676;23.352;2023-04-20T06:58:06;94454.28;;;9.36;69.42
56831;BME280;42713;42.676;23.352;2023-04-20T07:00:31;94461.66;;;9.39;70.14
56831;BME280;42713;42.676;23.352;2023-04-20T07:02:57;94445.44;;;9.37;70.47
56831;BME280;42713;42.676;23.352;2023-04-20T07:05:22;94461.84;;;9.32;71.34
56831;BME280;42713;42.676;23.352;2023-04-20T07:07:51;94465.31;;;9.38;71.30
56831;BME280;42713;42.676;23.352;2023-04-20T07:10:16;94458.03;;;9.40;71.53
56831;BME280;42713;42.676;23.352;2023-04-20T07:12:43;94464.16;;;9.51;71.69
56831;BME280;42713;42.676;23.352;2023-04-20T07:15:08;94468.50;;;9.62;70.71
56831;BME280;42713;42.676;23.352;2023-04-20T07:17:34;94464.13;;;9.68;70.64
56831;BME280;42713;42.676;23.352;2023-04-20T07:20:00;94462.00;;;9.65;70.56
56831;BME280;42713;42.676;23.352;2023-04-20T07:22:41;94463.50;;;9.61;70.60
56831;BME280;42713;42.676;23.352;2023-04-20T07:25:08;94467.53;;;9.69;71.01
56831;BME280;42713;42.676;23.352;2023-04-20T07:27:36;94461.22;;;9.64;70.49
56831;BME280;42713;42.676;23.352;2023-04-20T07:30:02;94464.78;;;9.80;70.43
56831;BME280;42713;42.676;23.352;2023-04-20T07:32:30;94465.59;;;9.81;69.90
56831;BME280;42713;42.676;23.352;2023-04-20T07:34:55;94458.78;;;9.80;69.55
56831;BME280;42713;42.676;23.352;2023-04-20T07:37:21;94466.75;;;9.90;69.59
56831;BME280;42713;42.676;23.352;2023-04-20T07:39:46;94452.63;;;9.91;69.70
56831;BME280;42713;42.676;23.352;2023-04-20T07:42:12;94462.38;;;9.96;69.66
56831;BME280;42713;42.676;23.352;2023-04-20T07:44:37;94464.53;;;10.04;69.44
56831;BME280;42713;42.676;23.352;2023-04-20T07:47:03;94457.72;;;10.03;68.86
56831;BME280;42713;42.676;23.352;2023-04-20T07:49:28;94454.38;;;10.08;68.66
56831;BME280;42713;42.676;23.352;2023-04-20T07:51:55;94462.78;;;10.10;68.92
56831;BME280;42713;42.676;23.352;2023-04-20T07:54:21;94456.25;;;10.12;67.50
56831;BME280;42713;42.676;23.352;2023-04-20T07:56:47;94449.25;;;10.18;66.20
56831;BME280;42713;42.676;23.352;2023-04-20T07:59:12;94459.56;;;10.30;67.70
56831;BME280;42713;42.676;23.352;2023-04-20T08:01:38;94464.19;;;10.45;67.55
56831;BME280;42713;42.676;23.352;2023-04-20T08:04:03;94454.34;;;10.52;66.82
56831;BME280;42713;42.676;23.352;2023-04-20T08:06:29;94445.41;;;10.53;65.83
56831;BME280;42713;42.676;23.352;2023-04-20T08:08:54;94460.84;;;10.50;66.51
56831;BME280;42713;42.676;23.352;2023-04-20T08:11:19;94464.81;;;10.52;66.17
56831;BME280;42713;42.676;23.352;2023-04-20T08:13:45;94463.63;;;10.65;66.05
56831;BME280;42713;42.676;23.352;2023-04-20T08:16:11;94468.09;;;10.70;66.18
56831;BME280;42713;42.676;23.352;2023-04-20T08:18:36;94458.47;;;10.76;66.41
56831;BME280;42713;42.676;23.352;2023-04-20T08:21:02;94461.31;;;10.74;66.60
56831;BME280;42713;42.676;23.352;2023-04-20T08:23:27;94455.66;;;10.82;66.17
56831;BME280;42713;42.676;23.352;2023-04-20T08:25:53;94452.22;;;10.82;66.07
56831;BME280;42713;42.676;23.352;2023-04-20T08:28:20;94470.53;;;10.77;65.51
56831;BME280;42713;42.676;23.352;2023-04-20T08:30:45;94462.31;;;10.68;64.80
56831;BME280;42713;42.676;23.352;2023-04-20T08:33:11;94461.00;;;10.65;65.69
56831;BME280;42713;42.676;23.352;2023-04-20T08:35:36;94467.75;;;10.61;66.35
56831;BME280;42713;42.676;23.352;2023-04-20T08:38:02;94456.06;;;10.74;66.73
56831;BME280;42713;42.676;23.352;2023-04-20T08:40:29;94460.56;;;10.79;64.93
56831;BME280;42713;42.676;23.352;2023-04-20T08:42:55;94484.16;;;10.79;65.71
56831;BME280;42713;42.676;23.352;2023-04-20T08:45:21;94457.34;;;10.66;65.14
56831;BME280;42713;42.676;23.352;2023-04-20T08:47:48;94459.50;;;10.74;66.17
56831;BME280;42713;42.676;23.352;2023-04-20T08:50:15;94469.91;;;10.69;65.95
56831;BME280;42713;42.676;23.352;2023-04-20T08:52:41;94458.97;;;10.72;65.29
56831;BME280;42713;42.676;23.352;2023-04-20T08:55:06;94473.06;;;10.66;64.50
56831;BME280;42713;42.676;23.352;2023-04-20T08:57:32;94459.88;;;10.56;65.19
56831;BME280;42713;42.676;23.352;2023-04-20T08:59:58;94466.38;;;10.53;64.39
56831;BME280;42713;42.676;23.352;2023-04-20T09:02:23;94463.53;;;10.55;64.83
56831;BME280;42713;42.676;23.352;2023-04-20T09:04:59;94463.03;;;10.58;66.31
56831;BME280;42713;42.676;23.352;2023-04-20T09:07:25;94462.03;;;10.64;66.33
56831;BME280;42713;42.676;23.352;2023-04-20T09:09:55;94462.63;;;10.71;66.33
56831;BME280;42713;42.676;23.352;2023-04-20T09:12:21;94460.81;;;10.77;65.02
56831;BME280;42713;42.676;23.352;2023-04-20T09:14:48;94468.50;;;10.84;64.66
56831;BME280;42713;42.676;23.352;2023-04-20T09:17:15;94475.09;;;10.92;65.97
56831;BME280;42713;42.676;23.352;2023-04-20T09:19:51;94458.09;;;10.94;64.55
56831;BME280;42713;42.676;23.352;2023-04-20T09:22:28;94452.13;;;11.04;64.40
56831;BME280;42713;42.676;23.352;2023-04-20T09:24:54;94459.28;;;11.14;64.70
56831;BME280;42713;42.676;23.352;2023-04-20T09:27:19;94464.06;;;11.27;63.88
56831;BME280;42713;42.676;23.352;2023-04-20T09:29:59;94458.31;;;11.30;63.54
56831;BME280;42713;42.676;23.352;2023-04-20T09:32:26;94437.63;;;11.34;62.40
56831;BME280;42713;42.676;23.352;2023-04-20T09:34:52;94476.00;;;11.45;62.66
56831;BME280;42713;42.676;23.352;2023-04-20T09:37:18;94437.69;;;11.44;62.02
56831;BME280;42713;42.676;23.352;2023-04-20T09:39:45;94449.03;;;11.55;62.38
56831;BME280;42713;42.676;23.352;2023-04-20T09:42:12;94439.38;;;11.71;63.18
56831;BME280;42713;42.676;23.352;2023-04-20T09:44:38;94448.81;;;11.67;61.97
56831;BME280;42713;42.676;23.352;2023-04-20T09:47:05;94438.34;;;11.72;61.28
56831;BME280;42713;42.676;23.352;2023-04-20T09:49:32;94451.00;;;11.91;60.96
56831;BME280;42713;42.676;23.352;2023-04-20T09:52:01;94456.88;;;12.03;59.99
56831;BME280;42713;42.676;23.352;2023-04-20T09:54:27;94435.34;;;12.01;60.44
56831;BME280;42713;42.676;23.352;2023-04-20T09:56:53;94447.94;;;12.04;59.75
56831;BME280;42713;42.676;23.352;2023-04-20T09:59:20;94451.00;;;11.91;60.30
56831;BME280;42713;42.676;23.352;2023-04-20T10:01:46;94423.72;;;11.92;60.21
56831;BME280;42713;42.676;23.352;2023-04-20T10:04:12;94439.47;;;11.92;60.75
56831;BME280;42713;42.676;23.352;2023-04-20T10:06:39;94435.25;;;11.91;61.17
56831;BME280;42713;42.676;23.352;2023-04-20T10:09:21;94415.06;;;11.96;61.28
56831;BME280;42713;42.676;23.352;2023-04-20T10:11:47;94433.50;;;12.07;60.12
56831;BME280;42713;42.676;23.352;2023-04-20T10:14:15;94414.91;;;12.13;60.78
56831;BME280;42713;42.676;23.352;2023-04-20T10:16:42;94418.59;;;12.23;59.95
56831;BME280;42713;42.676;23.352;2023-04-20T10:19:08;94412.06;;;12.30;60.67
56831;BME280;42713;42.676;23.352;2023-04-20T10:21:49;94417.84;;;12.38;60.10
56831;BME280;42713;42.676;23.352;2023-04-20T10:24:27;94402.88;;;12.38;59.85
56831;BME280;42713;42.676;23.352;2023-04-20T10:26:53;94423.88;;;12.43;58.85
56831;BME280;42713;42.676;23.352;2023-04-20T10:29:26;94403.66;;;12.34;58.01
56831;BME280;42713;42.676;23.352;2023-04-20T10:31:53;94408.34;;;12.26;58.23
56831;BME280;42713;42.676;23.352;2023-04-20T10:34:35;94430.44;;;12.36;58.57
56831;BME280;42713;42.676;23.352;2023-04-20T10:37:12;94408.38;;;12.37;58.23
56831;BME280;42713;42.676;23.352;2023-04-20T10:39:47;94397.09;;;12.47;58.31
56831;BME280;42713;42.676;23.352;2023-04-20T10:42:13;94412.84;;;12.52;57.67
56831;BME280;42713;42.676;23.352;2023-04-20T10:44:52;94405.00;;;12.67;57.53
56831;BME280;42713;42.676;23.352;2023-04-20T10:47:30;94396.84;;;12.79;57.90
56831;BME280;42713;42.676;23.352;2023-04-20T10:50:23;94406.28;;;12.85;55.77
56831;BME280;42713;42.676;23.352;2023-04-20T10:52:49;94398.66;;;12.89;56.03
56831;BME280;42713;42.676;23.352;2023-04-20T10:55:22;94413.41;;;12.85;55.45
56831;BME280;42713;42.676;23.352;2023-04-20T10:57:48;94408.16;;;12.85;55.83
56831;BME280;42713;42.676;23.352;2023-04-20T11:00:19;94414.44;;;12.89;56.48
56831;BME280;42713;42.676;23.352;2023-04-20T11:02:50;94395.78;;;13.01;57.02
56831;BME280;42713;42.676;23.352;2023-04-20T11:05:17;94405.50;;;13.00;54.87
56831;BME280;42713;42.676;23.352;2023-04-20T11:07:52;94400.47;;;13.14;54.85
56831;BME280;42713;42.676;23.352;2023-04-20T11:10:19;94412.56;;;13.15;55.44
56831;BME280;42713;42.676;23.352;2023-04-20T11:12:46;94390.97;;;13.23;54.15
56831;BME280;42713;42.676;23.352;2023-04-20T11:15:11;94379.13;;;13.31;54.93
56831;BME280;42713;42.676;23.352;2023-04-20T11:17:38;94383.84;;;13.55;54.22
56831;BME280;42713;42.676;23.352;2023-04-20T11:20:09;94385.91;;;13.63;54.00
56831;BME280;42713;42.676;23.352;2023-04-20T11:22:37;94401.66;;;13.74;53.84
56831;BME280;42713;42.676;23.352;2023-04-20T11:25:04;94391.22;;;13.53;53.93
56831;BME280;42713;42.676;23.352;2023-04-20T11:27:30;94389.38;;;13.48;53.79
56831;BME280;42713;42.676;23.352;2023-04-20T11:29:56;94382.25;;;13.54;53.00
56831;BME280;42713;42.676;23.352;2023-04-20T11:32:22;94382.47;;;13.63;53.35
56831;BME280;42713;42.676;23.352;2023-04-20T11:34:57;94391.38;;;13.77;52.17
56831;BME280;42713;42.676;23.352;2023-04-20T11:37:25;94382.69;;;13.77;52.30
56831;BME280;42713;42.676;23.352;2023-04-20T11:40:04;94384.56;;;13.71;52.16
56831;BME280;42713;42.676;23.352;2023-04-20T11:42:37;94370.34;;;13.72;52.26
56831;BME280;42713;42.676;23.352;2023-04-20T11:45:03;94377.94;;;13.79;52.32
56831;BME280;42713;42.676;23.352;2023-04-20T11:47:29;94363.91;;;13.94;51.62
56831;BME280;42713;42.676;23.352;2023-04-20T11:49:54;94375.94;;;14.10;51.35
56831;BME280;42713;42.676;23.352;2023-04-20T11:52:20;94367.00;;;14.06;49.86
56831;BME280;42713;42.676;23.352;2023-04-20T11:54:45;94360.16;;;14.10;50.68
56831;BME280;42713;42.676;23.352;2023-04-20T11:57:11;94370.56;;;14.26;50.85
56831;BME280;42713;42.676;23.352;2023-04-20T11:59:36;94371.34;;;14.31;49.20
56831;BME280;42713;42.676;23.352;2023-04-20T12:02:01;94365.47;;;14.40;49.65
56831;BME280;42713;42.676;23.352;2023-04-20T12:04:30;94368.19;;;14.29;50.51
56831;BME280;42713;42.676;23.352;2023-04-20T12:06:57;94369.47;;;14.32;50.44
56831;BME280;42713;42.676;23.352;2023-04-20T12:09:27;94373.16;;;14.31;49.97
56831;BME280;42713;42.676;23.352;2023-04-20T12:11:52;94362.91;;;14.29;50.80
56831;BME280;42713;42.676;23.352;2023-04-20T12:14:18;94369.53;;;14.27;51.08
56831;BME280;42713;42.676;23.352;2023-04-20T12:16:44;94357.00;;;14.03;51.38
56831;BME280;42713;42.676;23.352;2023-04-20T12:19:09;94382.72;;;13.72;51.72
56831;BME280;42713;42.676;23.352;2023-04-20T12:21:35;94368.91;;;13.30;52.84
56831;BME280;42713;42.676;23.352;2023-04-20T12:24:00;94378.63;;;13.19;52.77
56831;BME280;42713;42.676;23.352;2023-04-20T12:26:26;94372.88;;;13.12;53.77
56831;BME280;42713;42.676;23.352;2023-04-20T12:28:51;94366.06;;;12.95;54.55
56831;BME280;42713;42.676;23.352;2023-04-20T12:31:17;94363.19;;;12.97;54.63
56831;BME280;42713;42.676;23.352;2023-04-20T12:33:43;94358.47;;;12.83;55.60
56831;BME280;42713;42.676;23.352;2023-04-20T12:36:09;94363.44;;;12.80;54.57
56831;BME280;42713;42.676;23.352;2023-04-20T12:38:34;94372.66;;;12.77;54.09
56831;BME280;42713;42.676;23.352;2023-04-20T12:41:00;94360.31;;;12.77;54.97
56831;BME280;42713;42.676;23.352;2023-04-20T12:43:26;94355.06;;;12.88;55.36
56831;BME280;42713;42.676;23.352;2023-04-20T12:45:53;94351.88;;;12.96;55.10
56831;BME280;42713;42.676;23.352;2023-04-20T12:48:19;94357.84;;;13.28;55.65
56831;BME280;42713;42.676;23.352;2023-04-20T12:50:44;94358.00;;;13.62;53.97
56831;BME280;42713;42.676;23.352;2023-04-20T12:53:10;94350.56;;;13.80;53.31